sensor_id;sensor_type;location;lat;lon;timestamp;pressure;altitude;pressure_sealevel;temperature;humidity
20696;BME280;10507;52.754;13.040;2022-08-19T00:00:38;100581.88;;;23.63;98.06
20696;BME280;10507;52.754;13.040;2022-08-19T00:03:06;100543.91;;;23.70;97.20
20696;BME280;10507;52.754;13.040;2022-08-19T00:05:35;100562.03;;;23.79;97.13
20696;BME280;10507;52.754;13.040;2022-08-19T00:08:03;100490.78;;;23.65;97.26
20696;BME280;10507;52.754;13.040;2022-08-19T00:10:32;100532.81;;;23.55;98.22
20696;BME280;10507;52.754;13.040;2022-08-19T00:13:00;100546.53;;;23.45;99.05
20696;BME280;10507;52.754;13.040;2022-08-19T00:15:28;100524.91;;;23.43;99.10
20696;BME280;10507;52.754;13.040;2022-08-19T00:17:55;100524.06;;;23.43;99.21
20696;BME280;10507;52.754;13.040;2022-08-19T00:20:23;100548.03;;;23.74;98.08
20696;BME280;10507;52.754;13.040;2022-08-19T00:22:52;100485.13;;;23.59;97.90
20696;BME280;10507;52.754;13.040;2022-08-19T00:25:20;100544.16;;;23.76;97.50
20696;BME280;10507;52.754;13.040;2022-08-19T00:27:57;100486.75;;;23.86;96.30
20696;BME280;10507;52.754;13.040;2022-08-19T00:30:25;100471.94;;;23.89;95.92
20696;BME280;10507;52.754;13.040;2022-08-19T00:32:53;100466.63;;;23.87;96.03
20696;BME280;10507;52.754;13.040;2022-08-19T00:35:21;100414.81;;;23.79;96.09
20696;BME280;10507;52.754;13.040;2022-08-19T00:37:50;100432.91;;;23.88;95.98
20696;BME280;10507;52.754;13.040;2022-08-19T00:40:18;100447.03;;;23.92;95.80
20696;BME280;10507;52.754;13.040;2022-08-19T00:42:46;100409.22;;;23.89;95.67
20696;BME280;10507;52.754;13.040;2022-08-19T00:45:17;100397.97;;;23.83;95.92
20696;BME280;10507;52.754;13.040;2022-08-19T00:47:46;100415.88;;;23.86;95.83
20696;BME280;10507;52.754;13.040;2022-08-19T00:50:16;100384.16;;;23.77;95.96
20696;BME280;10507;52.754;13.040;2022-08-19T00:52:47;100355.66;;;23.71;95.86
20696;BME280;10507;52.754;13.040;2022-08-19T00:55:19;100338.78;;;23.51;96.43
20696;BME280;10507;52.754;13.040;2022-08-19T00:57:52;100405.53;;;23.47;97.60
20696;BME280;10507;52.754;13.040;2022-08-19T01:00:24;100379.16;;;23.48;97.50
20696;BME280;10507;52.754;13.040;2022-08-19T01:02:52;100386.44;;;23.39;97.81
20696;BME280;10507;52.754;13.040;2022-08-19T01:05:23;100374.13;;;23.18;98.99
20696;BME280;10507;52.754;13.040;2022-08-19T01:07:54;100432.47;;;23.08;100.00
20696;BME280;10507;52.754;13.040;2022-08-19T01:10:25;100399.84;;;22.90;100.00
20696;BME280;10507;52.754;13.040;2022-08-19T01:12:59;100462.84;;;22.69;100.00
20696;BME280;10507;52.754;13.040;2022-08-19T01:15:32;100477.84;;;22.73;100.00
20696;BME280;10507;52.754;13.040;2022-08-19T01:18:08;100541.97;;;22.93;100.00
20696;BME280;10507;52.754;13.040;2022-08-19T01:20:37;100492.56;;;23.06;100.00
20696;BME280;10507;52.754;13.040;2022-08-19T01:23:07;100485.84;;;22.74;100.00
20696;BME280;10507;52.754;13.040;2022-08-19T01:25:40;100537.00;;;22.45;100.00
20696;BME280;10507;52.754;13.040;2022-08-19T01:28:16;100581.00;;;22.22;100.00
20696;BME280;10507;52.754;13.040;2022-08-19T01:30:59;100638.38;;;22.19;100.00
20696;BME280;10507;52.754;13.040;2022-08-19T01:33:33;100665.06;;;22.06;100.00
20696;BME280;10507;52.754;13.040;2022-08-19T01:36:06;100716.63;;;21.97;100.00
20696;BME280;10507;52.754;13.040;2022-08-19T01:38:38;100783.00;;;21.95;100.00
20696;BME280;10507;52.754;13.040;2022-08-19T01:41:10;100778.31;;;21.87;100.00
20696;BME280;10507;52.754;13.040;2022-08-19T01:43:39;100828.84;;;21.70;100.00
20696;BME280;10507;52.754;13.040;2022-08-19T01:46:27;100936.72;;;21.70;100.00
20696;BME280;10507;52.754;13.040;2022-08-19T01:48:54;100866.88;;;21.90;100.00
20696;BME280;10507;52.754;13.040;2022-08-19T01:51:22;100901.53;;;21.78;100.00
20696;BME280;10507;52.754;13.040;2022-08-19T01:53:51;100962.75;;;22.11;100.00
20696;BME280;10507;52.754;13.040;2022-08-19T01:56:20;100888.22;;;22.61;100.00
20696;BME280;10507;52.754;13.040;2022-08-19T01:58:51;100763.84;;;22.71;100.00
20696;BME280;10507;52.754;13.040;2022-08-19T02:01:21;100721.78;;;23.19;100.00
20696;BME280;10507;52.754;13.040;2022-08-19T02:03:53;100681.84;;;22.74;100.00
20696;BME280;10507;52.754;13.040;2022-08-19T02:06:23;100772.31;;;22.86;100.00
20696;BME280;10507;52.754;13.040;2022-08-19T02:08:53;100809.91;;;22.82;100.00
20696;BME280;10507;52.754;13.040;2022-08-19T02:11:27;100741.19;;;23.16;100.00
20696;BME280;10507;52.754;13.040;2022-08-19T02:13:58;100750.31;;;22.97;100.00
20696;BME280;10507;52.754;13.040;2022-08-19T02:16:26;100747.38;;;23.27;100.00
20696;BME280;10507;52.754;13.040;2022-08-19T02:18:53;100676.78;;;23.15;100.00
20696;BME280;10507;52.754;13.040;2022-08-19T02:21:23;100700.13;;;23.18;100.00
20696;BME280;10507;52.754;13.040;2022-08-19T02:23:51;100673.06;;;23.16;100.00
20696;BME280;10507;52.754;13.040;2022-08-19T02:26:20;100678.56;;;22.71;100.00
20696;BME280;10507;52.754;13.040;2022-08-19T02:28:48;100797.50;;;22.70;100.00
20696;BME280;10507;52.754;13.040;2022-08-19T02:31:18;100852.00;;;22.51;100.00
20696;BME280;10507;52.754;13.040;2022-08-19T02:33:47;100827.84;;;22.48;100.00
20696;BME280;10507;52.754;13.040;2022-08-19T02:36:16;100881.44;;;22.08;100.00
20696;BME280;10507;52.754;13.040;2022-08-19T02:38:46;100909.94;;;22.33;100.00
20696;BME280;10507;52.754;13.040;2022-08-19T02:41:24;100926.66;;;22.19;100.00
20696;BME280;10507;52.754;13.040;2022-08-19T02:43:53;100909.38;;;22.20;100.00
20696;BME280;10507;52.754;13.040;2022-08-19T02:46:40;100925.25;;;22.05;100.00
20696;BME280;10507;52.754;13.040;2022-08-19T02:49:09;100966.06;;;22.05;100.00
20696;BME280;10507;52.754;13.040;2022-08-19T02:51:40;100851.72;;;21.87;100.00
20696;BME280;10507;52.754;13.040;2022-08-19T02:54:10;101022.31;;;22.05;100.00
20696;BME280;10507;52.754;13.040;2022-08-19T02:56:41;100923.25;;;21.49;100.00
20696;BME280;10507;52.754;13.040;2022-08-19T02:59:09;100998.56;;;21.06;100.00
20696;BME280;10507;52.754;13.040;2022-08-19T03:01:39;101095.38;;;20.96;100.00
20696;BME280;10507;52.754;13.040;2022-08-19T03:04:10;101194.44;;;20.81;100.00
20696;BME280;10507;52.754;13.040;2022-08-19T03:06:39;101258.34;;;20.73;100.00
20696;BME280;10507;52.754;13.040;2022-08-19T03:09:08;101322.13;;;20.79;100.00
20696;BME280;10507;52.754;13.040;2022-08-19T03:11:36;101287.69;;;20.80;100.00
20696;BME280;10507;52.754;13.040;2022-08-19T03:14:07;101272.16;;;20.82;100.00
20696;BME280;10507;52.754;13.040;2022-08-19T03:16:42;101266.41;;;20.41;100.00
20696;BME280;10507;52.754;13.040;2022-08-19T03:19:10;101416.25;;;20.56;100.00
20696;BME280;10507;52.754;13.040;2022-08-19T03:21:37;101369.88;;;20.48;100.00
20696;BME280;10507;52.754;13.040;2022-08-19T03:24:08;101379.47;;;20.41;100.00
20696;BME280;10507;52.754;13.040;2022-08-19T03:26:38;101417.56;;;20.39;100.00
20696;BME280;10507;52.754;13.040;2022-08-19T03:29:08;101441.50;;;20.34;100.00
20696;BME280;10507;52.754;13.040;2022-08-19T03:31:40;101511.03;;;20.46;100.00
20696;BME280;10507;52.754;13.040;2022-08-19T03:34:20;101522.75;;;20.47;100.00
20696;BME280;10507;52.754;13.040;2022-08-19T03:36:48;101517.72;;;20.53;100.00
20696;BME280;10507;52.754;13.040;2022-08-19T03:39:16;101474.84;;;20.59;100.00
20696;BME280;10507;52.754;13.040;2022-08-19T03:41:45;101469.06;;;20.74;100.00
20696;BME280;10507;52.754;13.040;2022-08-19T03:44:18;101403.91;;;20.86;100.00
20696;BME280;10507;52.754;13.040;2022-08-19T03:46:50;101361.00;;;20.68;100.00
20696;BME280;10507;52.754;13.040;2022-08-19T03:49:19;101442.38;;;20.46;100.00
20696;BME280;10507;52.754;13.040;2022-08-19T03:51:55;101531.59;;;20.38;100.00
20696;BME280;10507;52.754;13.040;2022-08-19T03:54:24;101572.53;;;20.34;100.00
20696;BME280;10507;52.754;13.040;2022-08-19T03:56:54;101619.88;;;20.30;100.00
20696;BME280;10507;52.754;13.040;2022-08-19T03:59:31;101642.66;;;20.28;100.00
20696;BME280;10507;52.754;13.040;2022-08-19T04:02:02;101684.00;;;20.31;100.00
20696;BME280;10507;52.754;13.040;2022-08-19T04:04:30;101713.59;;;20.34;100.00
20696;BME280;10507;52.754;13.040;2022-08-19T04:06:58;101751.28;;;20.50;100.00
20696;BME280;10507;52.754;13.040;2022-08-19T04:09:26;101696.94;;;20.52;100.00
20696;BME280;10507;52.754;13.040;2022-08-19T04:11:57;101690.34;;;20.43;100.00
20696;BME280;10507;52.754;13.040;2022-08-19T04:14:28;101719.59;;;20.51;100.00
20696;BME280;10507;52.754;13.040;2022-08-19T04:16:57;101675.84;;;20.55;100.00
20696;BME280;10507;52.754;13.040;2022-08-19T04:19:26;101571.59;;;20.47;100.00
20696;BME280;10507;52.754;13.040;2022-08-19T04:21:55;101539.16;;;20.45;100.00
20696;BME280;10507;52.754;13.040;2022-08-19T04:24:22;101514.47;;;20.37;100.00
20696;BME280;10507;52.754;13.040;2022-08-19T04:26:51;101528.03;;;20.37;100.00
20696;BME280;10507;52.754;13.040;2022-08-19T04:29:24;101560.97;;;20.44;100.00
20696;BME280;10507;52.754;13.040;2022-08-19T04:31:55;101520.00;;;20.35;100.00
20696;BME280;10507;52.754;13.040;2022-08-19T04:34:25;101546.75;;;20.29;100.00
20696;BME280;10507;52.754;13.040;2022-08-19T04:36:54;101602.84;;;20.28;100.00
20696;BME280;10507;52.754;13.040;2022-08-19T04:39:25;101645.28;;;20.29;100.00
20696;BME280;10507;52.754;13.040;2022-08-19T04:42:15;101653.63;;;20.26;100.00
20696;BME280;10507;52.754;13.040;2022-08-19T04:45:01;101680.97;;;20.23;100.00
20696;BME280;10507;52.754;13.040;2022-08-19T04:47:32;101709.53;;;20.16;100.00
20696;BME280;10507;52.754;13.040;2022-08-19T04:50:19;101768.31;;;20.15;100.00
20696;BME280;10507;52.754;13.040;2022-08-19T04:52:50;101790.00;;;20.15;100.00
20696;BME280;10507;52.754;13.040;2022-08-19T04:55:18;101793.81;;;20.13;100.00
20696;BME280;10507;52.754;13.040;2022-08-19T04:57:46;101807.50;;;20.11;100.00
20696;BME280;10507;52.754;13.040;2022-08-19T05:00:15;101820.16;;;20.11;100.00
20696;BME280;10507;52.754;13.040;2022-08-19T05:02:44;101815.41;;;20.14;100.00
20696;BME280;10507;52.754;13.040;2022-08-19T05:05:12;101814.41;;;20.15;100.00
20696;BME280;10507;52.754;13.040;2022-08-19T05:07:40;101830.38;;;20.20;100.00
20696;BME280;10507;52.754;13.040;2022-08-19T05:10:09;101813.63;;;20.26;100.00
20696;BME280;10507;52.754;13.040;2022-08-19T05:12:37;101754.09;;;20.25;100.00
20696;BME280;10507;52.754;13.040;2022-08-19T05:15:06;101714.69;;;20.32;100.00
20696;BME280;10507;52.754;13.040;2022-08-19T05:17:34;101744.59;;;20.43;100.00
20696;BME280;10507;52.754;13.040;2022-08-19T05:20:07;101689.28;;;20.33;100.00
20696;BME280;10507;52.754;13.040;2022-08-19T05:22:53;101665.00;;;20.31;100.00
20696;BME280;10507;52.754;13.040;2022-08-19T05:25:21;101634.63;;;20.26;100.00
20696;BME280;10507;52.754;13.040;2022-08-19T05:27:51;101655.13;;;20.30;100.00
20696;BME280;10507;52.754;13.040;2022-08-19T05:30:19;101693.91;;;20.44;100.00
20696;BME280;10507;52.754;13.040;2022-08-19T05:33:07;101632.97;;;20.37;100.00
20696;BME280;10507;52.754;13.040;2022-08-19T05:35:39;101632.97;;;20.37;100.00
20696;BME280;10507;52.754;13.040;2022-08-19T05:38:07;101664.06;;;20.44;100.00
20696;BME280;10507;52.754;13.040;2022-08-19T05:40:35;101688.78;;;20.52;100.00
20696;BME280;10507;52.754;13.040;2022-08-19T05:43:05;101654.06;;;20.44;100.00
20696;BME280;10507;52.754;13.040;2022-08-19T05:45:38;101633.25;;;20.45;100.00
20696;BME280;10507;52.754;13.040;2022-08-19T05:48:06;101627.34;;;20.51;100.00
20696;BME280;10507;52.754;13.040;2022-08-19T05:50:36;101669.34;;;20.58;100.00
20696;BME280;10507;52.754;13.040;2022-08-19T05:53:07;101683.31;;;20.65;100.00
20696;BME280;10507;52.754;13.040;2022-08-19T05:55:38;101602.56;;;20.55;100.00
20696;BME280;10507;52.754;13.040;2022-08-19T05:58:06;101595.97;;;20.60;100.00
20696;BME280;10507;52.754;13.040;2022-08-19T06:00:37;101574.09;;;20.50;100.00
20696;BME280;10507;52.754;13.040;2022-08-19T06:03:28;101616.06;;;20.57;100.00
20696;BME280;10507;52.754;13.040;2022-08-19T06:05:57;101629.38;;;20.60;100.00
20696;BME280;10507;52.754;13.040;2022-08-19T06:08:52;101642.50;;;20.66;100.00
20696;BME280;10507;52.754;13.040;2022-08-19T06:11:23;101664.13;;;20.79;100.00
20696;BME280;10507;52.754;13.040;2022-08-19T06:13:53;101612.69;;;20.89;100.00
20696;BME280;10507;52.754;13.040;2022-08-19T06:16:26;101528.06;;;20.95;100.00
20696;BME280;10507;52.754;13.040;2022-08-19T06:18:55;101505.59;;;21.15;100.00
20696;BME280;10507;52.754;13.040;2022-08-19T06:21:26;101477.41;;;21.50;100.00
20696;BME280;10507;52.754;13.040;2022-08-19T06:23:56;101325.94;;;21.52;100.00
20696;BME280;10507;52.754;13.040;2022-08-19T06:26:24;101290.84;;;21.61;100.00
20696;BME280;10507;52.754;13.040;2022-08-19T06:28:53;101208.41;;;21.50;100.00
20696;BME280;10507;52.754;13.040;2022-08-19T06:31:24;101200.44;;;21.58;100.00
20696;BME280;10507;52.754;13.040;2022-08-19T06:33:53;101174.06;;;21.49;100.00
20696;BME280;10507;52.754;13.040;2022-08-19T06:36:23;101216.06;;;21.66;100.00
20696;BME280;10507;52.754;13.040;2022-08-19T06:38:53;101162.38;;;21.58;100.00
20696;BME280;10507;52.754;13.040;2022-08-19T06:41:22;101168.41;;;21.62;100.00
20696;BME280;10507;52.754;13.040;2022-08-19T06:43:50;101198.69;;;21.88;100.00
20696;BME280;10507;52.754;13.040;2022-08-19T06:46:22;101163.28;;;21.99;100.00
20696;BME280;10507;52.754;13.040;2022-08-19T06:48:51;101136.66;;;22.13;100.00
20696;BME280;10507;52.754;13.040;2022-08-19T06:51:21;101088.31;;;22.26;100.00
20696;BME280;10507;52.754;13.040;2022-08-19T06:53:53;101092.50;;;22.50;100.00
20696;BME280;10507;52.754;13.040;2022-08-19T06:56:24;101040.34;;;22.74;100.00
20696;BME280;10507;52.754;13.040;2022-08-19T06:58:57;101009.66;;;22.81;100.00
20696;BME280;10507;52.754;13.040;2022-08-19T07:01:26;100961.41;;;22.64;100.00
20696;BME280;10507;52.754;13.040;2022-08-19T07:03:54;100982.94;;;22.48;100.00
20696;BME280;10507;52.754;13.040;2022-08-19T07:06:23;101016.31;;;22.40;100.00
20696;BME280;10507;52.754;13.040;2022-08-19T07:09:11;101008.03;;;22.22;100.00
20696;BME280;10507;52.754;13.040;2022-08-19T07:11:43;101003.84;;;22.18;100.00
20696;BME280;10507;52.754;13.040;2022-08-19T07:14:11;101022.72;;;22.00;100.00
20696;BME280;10507;52.754;13.040;2022-08-19T07:16:46;101095.31;;;22.09;100.00
20696;BME280;10507;52.754;13.040;2022-08-19T07:19:15;101083.81;;;21.86;100.00
20696;BME280;10507;52.754;13.040;2022-08-19T07:21:47;101120.44;;;21.82;100.00
20696;BME280;10507;52.754;13.040;2022-08-19T07:24:17;101152.34;;;21.80;100.00
20696;BME280;10507;52.754;13.040;2022-08-19T07:26:46;101169.88;;;21.66;100.00
20696;BME280;10507;52.754;13.040;2022-08-19T07:29:18;101235.59;;;21.81;100.00
20696;BME280;10507;52.754;13.040;2022-08-19T07:31:51;101258.78;;;21.85;100.00
20696;BME280;10507;52.754;13.040;2022-08-19T07:34:23;101246.22;;;21.84;100.00
20696;BME280;10507;52.754;13.040;2022-08-19T07:36:53;101270.41;;;21.87;100.00
20696;BME280;10507;52.754;13.040;2022-08-19T07:39:23;101244.31;;;21.75;100.00
20696;BME280;10507;52.754;13.040;2022-08-19T07:41:54;101287.72;;;21.86;100.00
20696;BME280;10507;52.754;13.040;2022-08-19T07:44:22;101299.81;;;22.03;100.00
20696;BME280;10507;52.754;13.040;2022-08-19T07:46:52;101249.00;;;22.04;100.00
20696;BME280;10507;52.754;13.040;2022-08-19T07:49:22;101264.34;;;22.05;100.00
20696;BME280;10507;52.754;13.040;2022-08-19T07:51:53;101280.25;;;22.09;100.00
20696;BME280;10507;52.754;13.040;2022-08-19T07:54:22;101253.63;;;22.13;100.00
20696;BME280;10507;52.754;13.040;2022-08-19T07:56:50;101244.69;;;22.22;100.00
20696;BME280;10507;52.754;13.040;2022-08-19T07:59:21;101182.31;;;21.99;100.00
20696;BME280;10507;52.754;13.040;2022-08-19T08:01:49;101198.88;;;21.96;100.00
20696;BME280;10507;52.754;13.040;2022-08-19T08:04:17;101195.28;;;21.86;100.00
20696;BME280;10507;52.754;13.040;2022-08-19T08:07:03;101238.91;;;21.85;100.00
20696;BME280;10507;52.754;13.040;2022-08-19T08:09:49;101218.72;;;21.77;100.00
20696;BME280;10507;52.754;13.040;2022-08-19T08:12:21;101282.09;;;21.78;100.00
20696;BME280;10507;52.754;13.040;2022-08-19T08:15:06;101313.38;;;21.72;100.00
20696;BME280;10507;52.754;13.040;2022-08-19T08:17:42;101347.78;;;21.83;100.00
20696;BME280;10507;52.754;13.040;2022-08-19T08:20:17;101369.75;;;21.91;100.00
20696;BME280;10507;52.754;13.040;2022-08-19T08:22:46;101355.22;;;22.02;100.00
20696;BME280;10507;52.754;13.040;2022-08-19T08:25:32;101344.09;;;22.15;100.00
20696;BME280;10507;52.754;13.040;2022-08-19T08:28:02;101325.16;;;22.25;100.00
20696;BME280;10507;52.754;13.040;2022-08-19T08:30:33;101293.28;;;22.36;100.00
20696;BME280;10507;52.754;13.040;2022-08-19T08:33:10;101221.25;;;22.40;100.00
20696;BME280;10507;52.754;13.040;2022-08-19T08:35:40;101215.69;;;22.52;100.00
20696;BME280;10507;52.754;13.040;2022-08-19T08:38:15;101152.63;;;22.37;100.00
20696;BME280;10507;52.754;13.040;2022-08-19T08:40:49;101176.16;;;22.48;100.00
20696;BME280;10507;52.754;13.040;2022-08-19T08:43:23;101226.88;;;22.58;100.00
20696;BME280;10507;52.754;13.040;2022-08-19T08:46:04;101175.28;;;22.57;100.00
20696;BME280;10507;52.754;13.040;2022-08-19T08:48:38;101148.94;;;22.48;100.00
20696;BME280;10507;52.754;13.040;2022-08-19T08:51:10;101142.78;;;22.46;100.00
20696;BME280;10507;52.754;13.040;2022-08-19T08:53:46;101145.78;;;22.42;100.00
20696;BME280;10507;52.754;13.040;2022-08-19T08:56:21;101176.16;;;22.48;100.00
20696;BME280;10507;52.754;13.040;2022-08-19T08:58:56;101160.69;;;22.48;100.00
20696;BME280;10507;52.754;13.040;2022-08-19T09:01:26;101137.59;;;22.33;100.00
20696;BME280;10507;52.754;13.040;2022-08-19T09:06:32;101157.75;;;22.20;100.00
20696;BME280;10507;52.754;13.040;2022-08-19T09:09:13;101168.44;;;22.03;100.00
20696;BME280;10507;52.754;13.040;2022-08-19T09:11:55;101225.13;;;22.07;100.00
20696;BME280;10507;52.754;13.040;2022-08-19T09:14:33;101239.25;;;22.01;100.00
20696;BME280;10507;52.754;13.040;2022-08-19T09:17:20;101253.16;;;21.98;100.00
20696;BME280;10507;52.754;13.040;2022-08-19T09:19:56;101285.34;;;21.93;100.00
20696;BME280;10507;52.754;13.040;2022-08-19T09:22:27;101312.84;;;21.99;100.00
20696;BME280;10507;52.754;13.040;2022-08-19T09:24:54;101323.75;;;22.09;100.00
20696;BME280;10507;52.754;13.040;2022-08-19T09:27:23;101276.81;;;22.07;100.00
20696;BME280;10507;52.754;13.040;2022-08-19T09:30:13;101266.66;;;22.09;100.00
20696;BME280;10507;52.754;13.040;2022-08-19T09:32:43;101317.13;;;22.23;100.00
20696;BME280;10507;52.754;13.040;2022-08-19T09:35:12;101314.91;;;22.38;100.00
20696;BME280;10507;52.754;13.040;2022-08-19T09:37:41;101281.56;;;22.46;100.00
20696;BME280;10507;52.754;13.040;2022-08-19T09:40:12;101186.81;;;22.20;100.00
20696;BME280;10507;52.754;13.040;2022-08-19T09:42:41;101208.56;;;22.20;100.00
20696;BME280;10507;52.754;13.040;2022-08-19T09:45:20;101239.72;;;22.37;100.00
20696;BME280;10507;52.754;13.040;2022-08-19T09:47:51;101232.28;;;22.39;100.00
20696;BME280;10507;52.754;13.040;2022-08-19T09:50:21;101213.81;;;22.42;100.00
20696;BME280;10507;52.754;13.040;2022-08-19T09:52:50;101262.69;;;22.63;100.00
20696;BME280;10507;52.754;13.040;2022-08-19T09:55:24;101195.66;;;22.62;100.00
20696;BME280;10507;52.754;13.040;2022-08-19T09:57:59;101158.69;;;22.70;100.00
20696;BME280;10507;52.754;13.040;2022-08-19T10:00:27;101214.47;;;23.14;100.00
20696;BME280;10507;52.754;13.040;2022-08-19T10:02:56;101167.19;;;23.53;100.00
20696;BME280;10507;52.754;13.040;2022-08-19T10:05:24;101070.16;;;23.60;100.00
20696;BME280;10507;52.754;13.040;2022-08-19T10:08:15;101013.88;;;23.69;100.00
20696;BME280;10507;52.754;13.040;2022-08-19T10:10:43;100985.28;;;23.73;100.00
20696;BME280;10507;52.754;13.040;2022-08-19T10:13:14;101009.09;;;23.98;100.00
20696;BME280;10507;52.754;13.040;2022-08-19T10:15:43;100915.59;;;23.88;100.00
20696;BME280;10507;52.754;13.040;2022-08-19T10:18:16;100925.94;;;24.02;100.00
20696;BME280;10507;52.754;13.040;2022-08-19T10:20:45;100901.41;;;23.84;100.00
20696;BME280;10507;52.754;13.040;2022-08-19T10:23:18;100917.22;;;23.99;100.00
20696;BME280;10507;52.754;13.040;2022-08-19T10:25:47;100847.09;;;23.91;100.00
20696;BME280;10507;52.754;13.040;2022-08-19T10:28:15;100824.91;;;23.86;100.00
20696;BME280;10507;52.754;13.040;2022-08-19T10:30:45;100804.31;;;23.74;100.00
20696;BME280;10507;52.754;13.040;2022-08-19T10:33:13;100769.75;;;23.56;100.00
20696;BME280;10507;52.754;13.040;2022-08-19T10:36:05;100770.09;;;23.53;100.00
20696;BME280;10507;52.754;13.040;2022-08-19T10:38:33;100805.84;;;23.50;100.00
20696;BME280;10507;52.754;13.040;2022-08-19T10:41:10;100808.63;;;23.58;100.00
20696;BME280;10507;52.754;13.040;2022-08-19T10:43:39;100795.66;;;23.52;100.00
20696;BME280;10507;52.754;13.040;2022-08-19T10:46:07;100789.03;;;23.19;100.00
20696;BME280;10507;52.754;13.040;2022-08-19T10:48:43;100760.56;;;22.86;100.00
20696;BME280;10507;52.754;13.040;2022-08-19T10:51:12;100850.22;;;22.97;100.00
20696;BME280;10507;52.754;13.040;2022-08-19T10:53:58;100812.53;;;22.74;100.00
20696;BME280;10507;52.754;13.040;2022-08-19T10:56:27;100850.31;;;22.77;100.00
20696;BME280;10507;52.754;13.040;2022-08-19T10:59:12;100883.59;;;22.99;100.00
20696;BME280;10507;52.754;13.040;2022-08-19T11:01:42;100839.06;;;22.90;100.00
20696;BME280;10507;52.754;13.040;2022-08-19T11:04:11;100792.66;;;22.92;100.00
20696;BME280;10507;52.754;13.040;2022-08-19T11:06:41;100791.75;;;22.91;100.00
20696;BME280;10507;52.754;13.040;2022-08-19T11:09:10;100830.13;;;23.08;100.00
20696;BME280;10507;52.754;13.040;2022-08-19T11:11:38;100799.91;;;23.01;100.00
20696;BME280;10507;52.754;13.040;2022-08-19T11:14:07;100789.81;;;22.83;100.00
20696;BME280;10507;52.754;13.040;2022-08-19T11:16:36;100812.59;;;23.10;100.00
20696;BME280;10507;52.754;13.040;2022-08-19T11:19:06;100842.91;;;23.43;100.00
20696;BME280;10507;52.754;13.040;2022-08-19T11:21:35;100797.66;;;23.50;100.00
20696;BME280;10507;52.754;13.040;2022-08-19T11:24:07;100797.16;;;23.73;100.00
20696;BME280;10507;52.754;13.040;2022-08-19T11:26:37;100702.16;;;23.60;100.00
20696;BME280;10507;52.754;13.040;2022-08-19T11:29:06;100750.38;;;23.77;100.00
20696;BME280;10507;52.754;13.040;2022-08-19T11:31:39;100749.94;;;23.90;100.00
20696;BME280;10507;52.754;13.040;2022-08-19T11:34:10;100729.81;;;23.91;100.00
20696;BME280;10507;52.754;13.040;2022-08-19T11:36:40;100746.66;;;24.13;100.00
20696;BME280;10507;52.754;13.040;2022-08-19T11:39:12;100786.41;;;24.23;100.00
20696;BME280;10507;52.754;13.040;2022-08-19T11:41:40;100779.81;;;24.60;100.00
20696;BME280;10507;52.754;13.040;2022-08-19T11:44:08;100773.19;;;24.79;100.00
20696;BME280;10507;52.754;13.040;2022-08-19T11:46:37;100634.59;;;24.48;99.36
20696;BME280;10507;52.754;13.040;2022-08-19T11:49:06;100572.03;;;24.04;100.00
20696;BME280;10507;52.754;13.040;2022-08-19T11:51:40;100561.03;;;23.80;100.00
20696;BME280;10507;52.754;13.040;2022-08-19T11:54:11;100598.44;;;23.70;100.00
20696;BME280;10507;52.754;13.040;2022-08-19T11:56:40;100593.06;;;23.78;100.00
20696;BME280;10507;52.754;13.040;2022-08-19T11:59:07;100625.69;;;23.96;100.00
20696;BME280;10507;52.754;13.040;2022-08-19T12:01:40;100659.56;;;24.27;100.00
20696;BME280;10507;52.754;13.040;2022-08-19T12:04:10;100555.69;;;24.13;100.00
20696;BME280;10507;52.754;13.040;2022-08-19T12:06:40;100566.25;;;24.16;99.87
20696;BME280;10507;52.754;13.040;2022-08-19T12:09:08;100533.84;;;24.04;100.00
20696;BME280;10507;52.754;13.040;2022-08-19T12:11:38;100589.09;;;24.15;100.00
20696;BME280;10507;52.754;13.040;2022-08-19T12:14:09;100491.94;;;23.63;100.00
20696;BME280;10507;52.754;13.040;2022-08-19T12:16:40;100567.09;;;23.65;100.00
20696;BME280;10507;52.754;13.040;2022-08-19T12:19:16;100600.41;;;23.77;100.00
20696;BME280;10507;52.754;13.040;2022-08-19T12:21:48;100604.56;;;23.98;100.00
20696;BME280;10507;52.754;13.040;2022-08-19T12:24:16;100559.53;;;23.94;100.00
20696;BME280;10507;52.754;13.040;2022-08-19T12:26:50;100520.28;;;23.78;100.00
20696;BME280;10507;52.754;13.040;2022-08-19T12:29:20;100513.50;;;23.82;100.00
20696;BME280;10507;52.754;13.040;2022-08-19T12:31:56;100559.19;;;23.97;100.00
20696;BME280;10507;52.754;13.040;2022-08-19T12:34:28;100514.88;;;23.86;100.00
20696;BME280;10507;52.754;13.040;2022-08-19T12:36:57;100505.69;;;23.96;100.00
20696;BME280;10507;52.754;13.040;2022-08-19T12:39:25;100463.50;;;23.74;100.00
20696;BME280;10507;52.754;13.040;2022-08-19T12:41:54;100475.50;;;23.89;100.00
20696;BME280;10507;52.754;13.040;2022-08-19T12:44:23;100526.31;;;23.90;100.00
20696;BME280;10507;52.754;13.040;2022-08-19T12:46:59;100553.94;;;24.03;100.00
20696;BME280;10507;52.754;13.040;2022-08-19T12:49:32;100530.44;;;24.11;100.00
20696;BME280;10507;52.754;13.040;2022-08-19T12:52:21;100529.59;;;24.18;100.00
20696;BME280;10507;52.754;13.040;2022-08-19T12:54:49;100460.88;;;24.23;99.20